Аэропорт: Сургут. Сургут

ICAO: USRR

METAR:
2021-04-21 20:30:00
USRR 212030Z 18002MPS CAVOK M03/M09 Q1037 R07/CLRD60 NOSIG RMK QFE773
METAR:
2021-04-21 16:55:00
TAF USRR 211655Z 2118/2218 18003MPS 9999 SCT020 TEMPO 2118/2203 2000 BR FEW005